KOBE/OBE METAR and TAF weather

Enter ICAO airport designator
Station Type Date Time Source
KOBE METAR 2020/09/19 21:35 UTC NOAA

KOBE 192135Z AUTO 35005KT 10SM SCT046 BKN050 32/22 A2985 RMK AO2


Station Type Date Time Source
KOBE Decoded METAR 2020/09/19 21:35 UTC NOAA

Okeechobee County Airport, FL, United States (KOBE) 27-15-60N 080-51-02W
Sep 19, 2020 - 05:35 PM EDT / 2020.09.19 2135 UTC
Wind: from the N (350 degrees) at 6 MPH (5 KT):0
Visibility: 10 mile(s):0
Sky conditions: mostly cloudy
Temperature: 89 F (32 C)
Heat index: 95.0 F (35.0 C):1
Dew Point: 71 F (22 C)
Relative Humidity: 55%
Pressure (altimeter): 29.85 in. Hg (1010 hPa)
ob: KOBE 192135Z AUTO 35005KT 10SM SCT046 BKN050 32/22 A2985 RMK AO2
cycle: 21

Station Type Date Time Source
KOBE TAF UTC NOAA

Error!

Example: see airport list